Airfield :







YOU CAN JOIN US ON...

 
LOGIN :

Register | Disclaimer

   EN    FR    IT 

 









Legend :    VFR   Marginal VFR   IFR   Intensive IFR   Very Intensive IFR
Visi :
Ceiling :
>= 8 km
>= 3000ft
5 to 8 km
1000 to 3000 ft
1500m to 5 km
500 to 1000 ft
800 to 1500m
200 to 500 ft
< 800m
< 200 ft
Symbols :   Thunderstorms  Fog  Heavy snow  Heavy precipitations  Wind > 20 kt






- Airport Elevation : 1709 ft
- IATA code : YKL


CYKL - Schefferville

CURRENT METAR :
  • 161040Z AUTO 32013G24KT 3SM -SN OVC026 M09/M10 A2872 RMK SLP761

EXPIRED METARs :
  • 161000Z AUTO 32018G26KT 3SM -SN OVC024 M09/M11 A2870 RMK SLP753
  • 160951Z AUTO 32014G27KT 3SM -SN OVC024 M09/M11 A2870 RMK SLP752
  • 160947Z AUTO 32014G27KT 2 1/2SM -SN OVC024 M09/M10 A2870 RMK SLP752
  • 160918Z AUTO 32013G24KT 5SM -SN OVC028 M09/M11 A2869 RMK SLP749
  • 160900Z AUTO 32014G23KT 6SM -SN OVC038 M09/M11 A2868 RMK SLP747
  • 160800Z AUTO 30019G28KT 9SM -SN OVC060 M08/M10 A2866 RMK SLP739

TAF TAF CYKL
Valid from the 16 at 08:00 until the 16 at 20:00 UTC


160738Z 1608/1620 30015G25KT 6SM -SN SCT015 OVC040
TEMPO 1608/1620 2SM -SN BLSN BKN015 OVC040
BECMG 1612/1614 30025G35KT RMK FCST BASED ON AUTO OBS. NXT FCST BY 161400Z



MET'MAP, your aeronautical weather chart ! - Copyright ORBIFLY December 2007 - Disclaimer

ORBIFLY MET'MAP TEAM :

Programming & Development : Alexandra Zaïnal
Concept & original design : Baudouin d'Aumeries
Assistance for programming : Marc-Olivier Méhu
Technical & hardware support : Manuel Goepfert

Contact : metmap@orbifly.com




SOURCES & CREDITS :

   NOAA